AAL1649 KLAS-KEVW
Flight info
| Callsign | AAL1649 |
|---|---|
| Flight time | 1h 8m |
| Altitude | 39000 |
| Route | GIDGT3 VERKN PROMT/N0450F380 LOFOG |
| Aircraft | A20N/M-SDE2E3FGHIRWXY/LB1 |
Departure
| Time | 2026-05-05 18:28 |
|---|---|
| Airport | Harry Reid International Airport (KLAS) |
Arrival
| Time | 2026-05-05 19:36 |
|---|---|
| Airport | Evanston-Uinta County Airport-Burns Field (KEVW) |
| Time | Latitude | Longitude | Altitude | Speed | Heading |
|---|---|---|---|---|---|
| 2026-05-05 17:57 | 36.08505 | -115.15481 | 2120 ft | 0 kts | 53° |
| 2026-05-05 18:11 | 36.08502 | -115.15486 | 2121 ft | 2 kts | 54° |
| 2026-05-05 18:11 | 36.08493 | -115.15501 | 2121 ft | 2 kts | 54° |
| 2026-05-05 18:11 | 36.08484 | -115.15516 | 2122 ft | 2 kts | 54° |
| 2026-05-05 18:11 | 36.08476 | -115.15531 | 2123 ft | 2 kts | 54° |
| 2026-05-05 18:12 | 36.08469 | -115.15547 | 2124 ft | 2 kts | 85° |
| 2026-05-05 18:12 | 36.08470 | -115.15565 | 2124 ft | 2 kts | 114° |
| 2026-05-05 18:12 | 36.08479 | -115.15581 | 2125 ft | 2 kts | 143° |
| 2026-05-05 18:12 | 36.08485 | -115.15585 | 2125 ft | 1 kts | 158° |
| 2026-05-05 18:13 | 36.08489 | -115.15587 | 2125 ft | 0 kts | 154° |
| 2026-05-05 18:18 | 36.08484 | -115.15584 | 2125 ft | 2 kts | 154° |
| 2026-05-05 18:19 | 36.08450 | -115.15564 | 2125 ft | 7 kts | 155° |
| 2026-05-05 18:19 | 36.08400 | -115.15534 | 2125 ft | 8 kts | 155° |
| 2026-05-05 18:19 | 36.08345 | -115.15538 | 2126 ft | 7 kts | 228° |
| 2026-05-05 18:19 | 36.08348 | -115.15596 | 2128 ft | 9 kts | 308° |
| 2026-05-05 18:20 | 36.08419 | -115.15646 | 2129 ft | 12 kts | 335° |
| 2026-05-05 18:20 | 36.08501 | -115.15694 | 2129 ft | 13 kts | 335° |
| 2026-05-05 18:20 | 36.08586 | -115.15742 | 2129 ft | 13 kts | 335° |
| 2026-05-05 18:20 | 36.08674 | -115.15788 | 2129 ft | 14 kts | 347° |
| 2026-05-05 18:21 | 36.08775 | -115.15746 | 2124 ft | 18 kts | 31° |
| 2026-05-05 18:21 | 36.08897 | -115.15670 | 2117 ft | 21 kts | 24° |
| 2026-05-05 18:21 | 36.09040 | -115.15597 | 2112 ft | 23 kts | 22° |
| 2026-05-05 18:21 | 36.09194 | -115.15514 | 2105 ft | 25 kts | 25° |
| 2026-05-05 18:22 | 36.09330 | -115.15436 | 2099 ft | 18 kts | 25° |
| 2026-05-05 18:22 | 36.09457 | -115.15363 | 2094 ft | 21 kts | 25° |
| 2026-05-05 18:22 | 36.09598 | -115.15281 | 2089 ft | 23 kts | 25° |
| 2026-05-05 18:22 | 36.09716 | -115.15214 | 2086 ft | 16 kts | 24° |
| 2026-05-05 18:23 | 36.09800 | -115.15248 | 2085 ft | 8 kts | 298° |
| 2026-05-05 18:23 | 36.09801 | -115.15250 | 2085 ft | 0 kts | 297° |
| 2026-05-05 18:23 | 36.09807 | -115.15264 | 2085 ft | 4 kts | 297° |
| 2026-05-05 18:24 | 36.09826 | -115.15314 | 2085 ft | 6 kts | 293° |
| 2026-05-05 18:24 | 36.09833 | -115.15363 | 2087 ft | 4 kts | 248° |
| 2026-05-05 18:24 | 36.09821 | -115.15374 | 2087 ft | 0 kts | 206° |
| 2026-05-05 18:27 | 36.09816 | -115.15377 | 2088 ft | 5 kts | 206° |
| 2026-05-05 18:27 | 36.09558 | -115.15525 | 2098 ft | 78 kts | 205° |
| 2026-05-05 18:27 | 36.08854 | -115.15929 | 2128 ft | 141 kts | 205° |
| 2026-05-05 18:27 | 36.07833 | -115.16511 | 2401 ft | 170 kts | 205° |
| 2026-05-05 18:28 | 36.05987 | -115.18243 | 3760 ft | 175 kts | 249° |
| 2026-05-05 18:28 | 36.05872 | -115.19719 | 4332 ft | 183 kts | 278° |
| 2026-05-05 18:28 | 36.06202 | -115.21301 | 4778 ft | 197 kts | 285° |
| 2026-05-05 18:29 | 36.06618 | -115.22982 | 5239 ft | 212 kts | 285° |
| 2026-05-05 18:29 | 36.07033 | -115.24771 | 5666 ft | 229 kts | 283° |
| 2026-05-05 18:29 | 36.07476 | -115.26720 | 6282 ft | 240 kts | 294° |
| 2026-05-05 18:29 | 36.08538 | -115.28297 | 6973 ft | 248 kts | 328° |
| 2026-05-05 18:30 | 36.10200 | -115.29063 | 7543 ft | 261 kts | 347° |
| 2026-05-05 18:30 | 36.11987 | -115.29536 | 8265 ft | 267 kts | 349° |
| 2026-05-05 18:30 | 36.12926 | -115.29753 | 8685 ft | 268 kts | 351° |
| 2026-05-05 18:30 | 36.14447 | -115.29855 | 9321 ft | 269 kts | 12° |
| 2026-05-05 18:31 | 36.16133 | -115.28888 | 9969 ft | 273 kts | 43° |
| 2026-05-05 18:31 | 36.17268 | -115.26945 | 10380 ft | 288 kts | 65° |
| 2026-05-05 18:31 | 36.18055 | -115.24604 | 10970 ft | 299 kts | 70° |
| 2026-05-05 18:31 | 36.18718 | -115.22190 | 11699 ft | 303 kts | 72° |
| 2026-05-05 18:32 | 36.19312 | -115.19682 | 12517 ft | 305 kts | 78° |
| 2026-05-05 18:32 | 36.19628 | -115.17117 | 13287 ft | 307 kts | 86° |
| 2026-05-05 18:32 | 36.19672 | -115.14464 | 14068 ft | 310 kts | 90° |
| 2026-05-05 18:32 | 36.19654 | -115.11787 | 14794 ft | 313 kts | 90° |
| 2026-05-05 18:33 | 36.19633 | -115.09105 | 15347 ft | 321 kts | 90° |
| 2026-05-05 18:33 | 36.19619 | -115.06298 | 16016 ft | 326 kts | 90° |
| 2026-05-05 18:33 | 36.19611 | -115.03506 | 16716 ft | 329 kts | 89° |
| 2026-05-05 18:33 | 36.19607 | -115.00665 | 17410 ft | 331 kts | 89° |
| 2026-05-05 18:34 | 36.19604 | -114.97830 | 18061 ft | 335 kts | 89° |
| 2026-05-05 18:34 | 36.19601 | -114.94946 | 18697 ft | 338 kts | 89° |
| 2026-05-05 18:34 | 36.19600 | -114.92035 | 19315 ft | 342 kts | 89° |
| 2026-05-05 18:34 | 36.19598 | -114.89101 | 19932 ft | 345 kts | 89° |
| 2026-05-05 18:35 | 36.19594 | -114.86108 | 20573 ft | 348 kts | 89° |
| 2026-05-05 18:35 | 36.19591 | -114.83133 | 21182 ft | 351 kts | 89° |
| 2026-05-05 18:35 | 36.19587 | -114.80115 | 21791 ft | 354 kts | 89° |
| 2026-05-05 18:35 | 36.19582 | -114.77060 | 22408 ft | 357 kts | 89° |
| 2026-05-05 18:36 | 36.19574 | -114.73985 | 22973 ft | 361 kts | 89° |
| 2026-05-05 18:36 | 36.19566 | -114.70847 | 23546 ft | 364 kts | 89° |
| 2026-05-05 18:36 | 36.19558 | -114.67722 | 24079 ft | 368 kts | 89° |
| 2026-05-05 18:36 | 36.19550 | -114.64580 | 24606 ft | 371 kts | 89° |
| 2026-05-05 18:37 | 36.19542 | -114.61341 | 25133 ft | 374 kts | 89° |
| 2026-05-05 18:37 | 36.19535 | -114.58124 | 25629 ft | 377 kts | 89° |
| 2026-05-05 18:37 | 36.19527 | -114.54900 | 26112 ft | 379 kts | 89° |
| 2026-05-05 18:37 | 36.19519 | -114.51630 | 26578 ft | 382 kts | 89° |
| 2026-05-05 18:38 | 36.19509 | -114.48321 | 27026 ft | 386 kts | 90° |
| 2026-05-05 18:38 | 36.19498 | -114.45014 | 27474 ft | 388 kts | 90° |
| 2026-05-05 18:38 | 36.19486 | -114.41676 | 27929 ft | 390 kts | 90° |
| 2026-05-05 18:38 | 36.19474 | -114.38329 | 28348 ft | 393 kts | 90° |
| 2026-05-05 18:39 | 36.19459 | -114.34936 | 28687 ft | 397 kts | 91° |
| 2026-05-05 18:39 | 36.19444 | -114.31496 | 29041 ft | 400 kts | 91° |
| 2026-05-05 18:39 | 36.19529 | -114.28066 | 29397 ft | 403 kts | 85° |
| 2026-05-05 18:39 | 36.19935 | -114.24625 | 29721 ft | 406 kts | 79° |
| 2026-05-05 18:40 | 36.20676 | -114.21240 | 29979 ft | 411 kts | 71° |
| 2026-05-05 18:40 | 36.21751 | -114.17947 | 30199 ft | 416 kts | 65° |
| 2026-05-05 18:40 | 36.22996 | -114.14712 | 30450 ft | 420 kts | 64° |
| 2026-05-05 18:40 | 36.24294 | -114.11434 | 30641 ft | 423 kts | 64° |
| 2026-05-05 18:41 | 36.25587 | -114.08177 | 30845 ft | 426 kts | 64° |
| 2026-05-05 18:41 | 36.26881 | -114.04897 | 31071 ft | 427 kts | 64° |
| 2026-05-05 18:41 | 36.28184 | -114.01578 | 31268 ft | 428 kts | 65° |
| 2026-05-05 18:41 | 36.29472 | -113.98278 | 31429 ft | 431 kts | 65° |
| 2026-05-05 18:42 | 36.30774 | -113.94929 | 31588 ft | 434 kts | 65° |
| 2026-05-05 18:42 | 36.32092 | -113.91531 | 31764 ft | 436 kts | 65° |
| 2026-05-05 18:42 | 36.33409 | -113.88132 | 31951 ft | 438 kts | 65° |
| 2026-05-05 18:42 | 36.34730 | -113.84722 | 32120 ft | 441 kts | 65° |
| 2026-05-05 18:43 | 36.36058 | -113.81292 | 32276 ft | 444 kts | 65° |
| 2026-05-05 18:43 | 36.37387 | -113.77853 | 32426 ft | 447 kts | 65° |
| 2026-05-05 18:43 | 36.38728 | -113.74384 | 32579 ft | 450 kts | 65° |
| 2026-05-05 18:43 | 36.40092 | -113.70851 | 32741 ft | 453 kts | 64° |
| 2026-05-05 18:44 | 36.41447 | -113.67337 | 32915 ft | 455 kts | 64° |
| 2026-05-05 18:44 | 36.42812 | -113.63789 | 33063 ft | 458 kts | 64° |
| 2026-05-05 18:44 | 36.44183 | -113.60232 | 33186 ft | 460 kts | 64° |
| 2026-05-05 18:44 | 36.45571 | -113.56646 | 33323 ft | 464 kts | 64° |
| 2026-05-05 18:45 | 36.46958 | -113.53062 | 33496 ft | 466 kts | 64° |
| 2026-05-05 18:45 | 36.48372 | -113.49408 | 33685 ft | 468 kts | 64° |
| 2026-05-05 18:45 | 36.49780 | -113.45764 | 33891 ft | 469 kts | 64° |
| 2026-05-05 18:45 | 36.51180 | -113.42138 | 34149 ft | 469 kts | 64° |
| 2026-05-05 18:46 | 36.52581 | -113.38506 | 34434 ft | 468 kts | 64° |
| 2026-05-05 18:46 | 36.53993 | -113.34841 | 34694 ft | 468 kts | 65° |
| 2026-05-05 18:46 | 36.55406 | -113.31171 | 34899 ft | 468 kts | 65° |
| 2026-05-05 18:46 | 36.56806 | -113.27528 | 35104 ft | 469 kts | 65° |
| 2026-05-05 18:47 | 36.58212 | -113.23862 | 35309 ft | 469 kts | 65° |
| 2026-05-05 18:47 | 36.59603 | -113.20236 | 35528 ft | 469 kts | 65° |
| 2026-05-05 18:47 | 36.60999 | -113.16588 | 35726 ft | 470 kts | 65° |
| 2026-05-05 18:47 | 36.62409 | -113.12897 | 35937 ft | 470 kts | 65° |
| 2026-05-05 18:48 | 36.63805 | -113.09244 | 36096 ft | 471 kts | 65° |
| 2026-05-05 18:48 | 36.65208 | -113.05563 | 36271 ft | 471 kts | 65° |
| 2026-05-05 18:48 | 36.66607 | -113.01893 | 36443 ft | 471 kts | 65° |
| 2026-05-05 18:48 | 36.68000 | -112.98235 | 36602 ft | 472 kts | 65° |
| 2026-05-05 18:49 | 36.69416 | -112.94508 | 36745 ft | 474 kts | 65° |
| 2026-05-05 18:49 | 36.70816 | -112.90820 | 36918 ft | 474 kts | 65° |
| 2026-05-05 18:49 | 36.72224 | -112.87103 | 37080 ft | 474 kts | 65° |
| 2026-05-05 18:49 | 36.73622 | -112.83409 | 37238 ft | 474 kts | 65° |
| 2026-05-05 18:50 | 36.75026 | -112.79703 | 37380 ft | 475 kts | 65° |
| 2026-05-05 18:50 | 36.76428 | -112.75997 | 37484 ft | 477 kts | 65° |
| 2026-05-05 18:50 | 36.77850 | -112.72233 | 37630 ft | 477 kts | 65° |
| 2026-05-05 18:50 | 36.79252 | -112.68517 | 37775 ft | 477 kts | 65° |
| 2026-05-05 18:51 | 36.80670 | -112.64757 | 37885 ft | 479 kts | 65° |
| 2026-05-05 18:51 | 36.82075 | -112.61020 | 37965 ft | 481 kts | 66° |
| 2026-05-05 18:51 | 36.83491 | -112.57245 | 38094 ft | 481 kts | 65° |
| 2026-05-05 18:51 | 36.84936 | -112.53458 | 38277 ft | 481 kts | 63° |
| 2026-05-05 18:52 | 36.86597 | -112.49873 | 38428 ft | 481 kts | 56° |
| 2026-05-05 18:52 | 36.88566 | -112.46516 | 38587 ft | 481 kts | 49° |
| 2026-05-05 18:52 | 36.90813 | -112.43452 | 38744 ft | 480 kts | 42° |
| 2026-05-05 18:52 | 36.93296 | -112.40734 | 38895 ft | 478 kts | 35° |
| 2026-05-05 18:53 | 36.98855 | -112.36230 | 38965 ft | 477 kts | 27° |
| 2026-05-05 18:53 | 37.04634 | -112.32090 | 38963 ft | 476 kts | 28° |
| 2026-05-05 18:54 | 37.10357 | -112.27934 | 38963 ft | 476 kts | 28° |
| 2026-05-05 18:54 | 37.16081 | -112.23730 | 38968 ft | 476 kts | 28° |
| 2026-05-05 18:55 | 37.21770 | -112.19535 | 38965 ft | 476 kts | 28° |
| 2026-05-05 18:55 | 37.27450 | -112.15340 | 38965 ft | 475 kts | 28° |
| 2026-05-05 18:56 | 37.33100 | -112.10982 | 38969 ft | 477 kts | 33° |
| 2026-05-05 18:56 | 37.38266 | -112.05782 | 38982 ft | 478 kts | 42° |
| 2026-05-05 18:57 | 37.42791 | -111.99676 | 38985 ft | 478 kts | 51° |
| 2026-05-05 18:57 | 37.46993 | -111.93235 | 38978 ft | 478 kts | 42° |
| 2026-05-05 18:58 | 37.52324 | -111.88384 | 38991 ft | 474 kts | 24° |
| 2026-05-05 18:58 | 37.58535 | -111.85762 | 38989 ft | 465 kts | 5° |
| 2026-05-05 18:59 | 37.64924 | -111.84817 | 39002 ft | 462 kts | 2° |
| 2026-05-05 18:59 | 37.71310 | -111.84002 | 39002 ft | 462 kts | 2° |
| 2026-05-05 19:00 | 37.77678 | -111.83141 | 39001 ft | 463 kts | 2° |
| 2026-05-05 19:00 | 37.84110 | -111.82252 | 39004 ft | 463 kts | 3° |
| 2026-05-05 19:01 | 37.90480 | -111.81361 | 39001 ft | 462 kts | 2° |
| 2026-05-05 19:01 | 37.96838 | -111.80471 | 38997 ft | 461 kts | 3° |
| 2026-05-05 19:02 | 38.03214 | -111.79572 | 38992 ft | 460 kts | 2° |
| 2026-05-05 19:02 | 38.09574 | -111.78673 | 39001 ft | 459 kts | 3° |
| 2026-05-05 19:03 | 38.15890 | -111.77783 | 39014 ft | 459 kts | 3° |
| 2026-05-05 19:03 | 38.22226 | -111.76887 | 39025 ft | 456 kts | 3° |
| 2026-05-05 19:04 | 38.28528 | -111.75994 | 39010 ft | 456 kts | 3° |
| 2026-05-05 19:04 | 38.34810 | -111.75103 | 39010 ft | 456 kts | 4° |
| 2026-05-05 19:05 | 38.41122 | -111.74204 | 38997 ft | 455 kts | 4° |
| 2026-05-05 19:05 | 38.47364 | -111.73313 | 39000 ft | 454 kts | 3° |
| 2026-05-05 19:06 | 38.53636 | -111.72419 | 39002 ft | 452 kts | 4° |
| 2026-05-05 19:06 | 38.59857 | -111.71531 | 38994 ft | 451 kts | 4° |
| 2026-05-05 19:07 | 38.65066 | -111.70782 | 38977 ft | 451 kts | 4° |
| 2026-05-05 19:07 | 38.72292 | -111.69745 | 38990 ft | 449 kts | 4° |
| 2026-05-05 19:08 | 38.78494 | -111.68858 | 38993 ft | 448 kts | 4° |
| 2026-05-05 19:08 | 38.84723 | -111.67960 | 38979 ft | 449 kts | 4° |
| 2026-05-05 19:09 | 38.90931 | -111.67065 | 38976 ft | 447 kts | 4° |
| 2026-05-05 19:09 | 38.97076 | -111.66175 | 38970 ft | 445 kts | 4° |
| 2026-05-05 19:10 | 39.03219 | -111.65286 | 38984 ft | 444 kts | 4° |
| 2026-05-05 19:10 | 39.09329 | -111.64401 | 38954 ft | 443 kts | 5° |
| 2026-05-05 19:11 | 39.15465 | -111.63506 | 38966 ft | 442 kts | 4° |
| 2026-05-05 19:11 | 39.21564 | -111.62616 | 38957 ft | 440 kts | 4° |
| 2026-05-05 19:12 | 39.27654 | -111.61732 | 38975 ft | 439 kts | 4° |
| 2026-05-05 19:12 | 39.33707 | -111.60850 | 38632 ft | 437 kts | 4° |
| 2026-05-05 19:13 | 39.36722 | -111.60410 | 38395 ft | 433 kts | 4° |
| 2026-05-05 19:13 | 39.39656 | -111.59980 | 38152 ft | 428 kts | 4° |
| 2026-05-05 19:13 | 39.42627 | -111.59545 | 37918 ft | 423 kts | 5° |
| 2026-05-05 19:13 | 39.45538 | -111.59122 | 37675 ft | 419 kts | 5° |
| 2026-05-05 19:14 | 39.48407 | -111.58701 | 37432 ft | 416 kts | 5° |
| 2026-05-05 19:14 | 39.51265 | -111.58282 | 37200 ft | 413 kts | 5° |
| 2026-05-05 19:14 | 39.54111 | -111.57865 | 36955 ft | 410 kts | 5° |
| 2026-05-05 19:14 | 39.56929 | -111.57452 | 36717 ft | 408 kts | 6° |
| 2026-05-05 19:15 | 39.59759 | -111.57036 | 36441 ft | 407 kts | 6° |
| 2026-05-05 19:15 | 39.62538 | -111.56626 | 36145 ft | 404 kts | 6° |
| 2026-05-05 19:15 | 39.65310 | -111.56218 | 35788 ft | 403 kts | 6° |
| 2026-05-05 19:15 | 39.68089 | -111.55808 | 35363 ft | 402 kts | 6° |
| 2026-05-05 19:16 | 39.70885 | -111.55398 | 34876 ft | 402 kts | 7° |
| 2026-05-05 19:16 | 39.73625 | -111.54996 | 34395 ft | 402 kts | 7° |
| 2026-05-05 19:16 | 39.76422 | -111.54581 | 33846 ft | 402 kts | 7° |
| 2026-05-05 19:16 | 39.79194 | -111.54168 | 33280 ft | 401 kts | 7° |
| 2026-05-05 19:17 | 39.81953 | -111.53757 | 32729 ft | 400 kts | 7° |
| 2026-05-05 19:17 | 39.84705 | -111.53347 | 32143 ft | 400 kts | 7° |
| 2026-05-05 19:17 | 39.87437 | -111.52940 | 31676 ft | 396 kts | 8° |
| 2026-05-05 19:17 | 39.90161 | -111.52534 | 31245 ft | 392 kts | 7° |
| 2026-05-05 19:18 | 39.92884 | -111.52129 | 30809 ft | 389 kts | 7° |
| 2026-05-05 19:18 | 39.95538 | -111.51733 | 30379 ft | 385 kts | 7° |
| 2026-05-05 19:18 | 39.98180 | -111.51342 | 29921 ft | 382 kts | 7° |
| 2026-05-05 19:18 | 40.00797 | -111.50952 | 29484 ft | 378 kts | 7° |
| 2026-05-05 19:19 | 40.03411 | -111.50562 | 29052 ft | 374 kts | 7° |
| 2026-05-05 19:19 | 40.05973 | -111.50178 | 28631 ft | 371 kts | 7° |
| 2026-05-05 19:19 | 40.08513 | -111.49799 | 28201 ft | 368 kts | 7° |
| 2026-05-05 19:19 | 40.11049 | -111.49420 | 27796 ft | 364 kts | 7° |
| 2026-05-05 19:20 | 40.13583 | -111.49041 | 27388 ft | 361 kts | 7° |
| 2026-05-05 19:20 | 40.16080 | -111.48668 | 26993 ft | 358 kts | 7° |
| 2026-05-05 19:20 | 40.18531 | -111.48302 | 26600 ft | 356 kts | 7° |
| 2026-05-05 19:20 | 40.20981 | -111.47935 | 26204 ft | 353 kts | 7° |
| 2026-05-05 19:21 | 40.23387 | -111.47575 | 25811 ft | 351 kts | 7° |
| 2026-05-05 19:21 | 40.25820 | -111.47210 | 25408 ft | 349 kts | 6° |
| 2026-05-05 19:21 | 40.28209 | -111.46853 | 25017 ft | 347 kts | 6° |
| 2026-05-05 19:21 | 40.30598 | -111.46494 | 24615 ft | 345 kts | 6° |
| 2026-05-05 19:22 | 40.32968 | -111.46137 | 24216 ft | 343 kts | 6° |
| 2026-05-05 19:22 | 40.35325 | -111.45782 | 23820 ft | 341 kts | 6° |
| 2026-05-05 19:22 | 40.37692 | -111.45426 | 23416 ft | 340 kts | 6° |
| 2026-05-05 19:22 | 40.40022 | -111.45075 | 23027 ft | 339 kts | 6° |
| 2026-05-05 19:23 | 40.42376 | -111.44721 | 22638 ft | 337 kts | 6° |
| 2026-05-05 19:23 | 40.44680 | -111.44374 | 22255 ft | 336 kts | 6° |
| 2026-05-05 19:23 | 40.47010 | -111.44023 | 21861 ft | 335 kts | 6° |
| 2026-05-05 19:23 | 40.49283 | -111.43679 | 21476 ft | 333 kts | 6° |
| 2026-05-05 19:24 | 40.51603 | -111.43330 | 21094 ft | 331 kts | 6° |
| 2026-05-05 19:24 | 40.53865 | -111.42989 | 20709 ft | 330 kts | 6° |
| 2026-05-05 19:24 | 40.56146 | -111.42643 | 20326 ft | 327 kts | 6° |
| 2026-05-05 19:24 | 40.58402 | -111.42303 | 19961 ft | 325 kts | 6° |
| 2026-05-05 19:25 | 40.60625 | -111.41968 | 19597 ft | 323 kts | 6° |
| 2026-05-05 19:25 | 40.62860 | -111.41629 | 19246 ft | 320 kts | 6° |
| 2026-05-05 19:25 | 40.65047 | -111.41297 | 18887 ft | 318 kts | 6° |
| 2026-05-05 19:25 | 40.67223 | -111.40967 | 18544 ft | 316 kts | 6° |
| 2026-05-05 19:26 | 40.69417 | -111.40601 | 18180 ft | 314 kts | 8° |
| 2026-05-05 19:26 | 40.71562 | -111.40104 | 17765 ft | 314 kts | 9° |
| 2026-05-05 19:26 | 40.73696 | -111.39579 | 17367 ft | 314 kts | 9° |
| 2026-05-05 19:26 | 40.75837 | -111.39050 | 16965 ft | 313 kts | 9° |
| 2026-05-05 19:27 | 40.77977 | -111.38520 | 16567 ft | 312 kts | 9° |
| 2026-05-05 19:27 | 40.80117 | -111.37993 | 16166 ft | 311 kts | 9° |
| 2026-05-05 19:27 | 40.82211 | -111.37477 | 15776 ft | 310 kts | 9° |
| 2026-05-05 19:27 | 40.84357 | -111.36948 | 15366 ft | 309 kts | 8° |
| 2026-05-05 19:28 | 40.86444 | -111.36433 | 14976 ft | 308 kts | 8° |
| 2026-05-05 19:28 | 40.88561 | -111.35908 | 14584 ft | 307 kts | 9° |
| 2026-05-05 19:28 | 40.90644 | -111.35397 | 14195 ft | 306 kts | 9° |
| 2026-05-05 19:28 | 40.92753 | -111.34876 | 13804 ft | 304 kts | 9° |
| 2026-05-05 19:29 | 40.94830 | -111.34363 | 13422 ft | 303 kts | 10° |
| 2026-05-05 19:29 | 40.96879 | -111.33858 | 13034 ft | 302 kts | 9° |
| 2026-05-05 19:29 | 40.98947 | -111.33348 | 12638 ft | 301 kts | 9° |
| 2026-05-05 19:29 | 41.00997 | -111.32842 | 12247 ft | 300 kts | 9° |
| 2026-05-05 19:30 | 41.03059 | -111.32332 | 11855 ft | 300 kts | 9° |
| 2026-05-05 19:30 | 41.05092 | -111.31830 | 11465 ft | 299 kts | 9° |
| 2026-05-05 19:30 | 41.07137 | -111.31323 | 11072 ft | 299 kts | 10° |
| 2026-05-05 19:30 | 41.09169 | -111.30819 | 10742 ft | 296 kts | 9° |
| 2026-05-05 19:31 | 41.11165 | -111.30321 | 10709 ft | 281 kts | 9° |
| 2026-05-05 19:31 | 41.13039 | -111.29853 | 10675 ft | 267 kts | 9° |
| 2026-05-05 19:31 | 41.14805 | -111.29412 | 10637 ft | 253 kts | 9° |
| 2026-05-05 19:31 | 41.16488 | -111.28992 | 10594 ft | 242 kts | 9° |
| 2026-05-05 19:32 | 41.18157 | -111.28575 | 10547 ft | 243 kts | 12° |
| 2026-05-05 19:32 | 41.19679 | -111.27666 | 10362 ft | 245 kts | 44° |
| 2026-05-05 19:32 | 41.20605 | -111.25747 | 10210 ft | 248 kts | 67° |
| 2026-05-05 19:32 | 41.21171 | -111.23606 | 10033 ft | 244 kts | 72° |
| 2026-05-05 19:33 | 41.21688 | -111.21487 | 9772 ft | 242 kts | 69° |
| 2026-05-05 19:33 | 41.22304 | -111.19421 | 9451 ft | 239 kts | 66° |
| 2026-05-05 19:33 | 41.22963 | -111.17409 | 9138 ft | 231 kts | 66° |
| 2026-05-05 19:33 | 41.23591 | -111.15498 | 8844 ft | 222 kts | 66° |
| 2026-05-05 19:34 | 41.24170 | -111.13707 | 8645 ft | 203 kts | 67° |
| 2026-05-05 19:34 | 41.24694 | -111.12078 | 8373 ft | 183 kts | 67° |
| 2026-05-05 19:34 | 41.25182 | -111.10568 | 8093 ft | 168 kts | 67° |
| 2026-05-05 19:35 | 41.26034 | -111.07929 | 7651 ft | 148 kts | 67° |
| 2026-05-05 19:35 | 41.26441 | -111.06689 | 7477 ft | 148 kts | 68° |
| 2026-05-05 19:35 | 41.26840 | -111.05440 | 7300 ft | 147 kts | 68° |
| 2026-05-05 19:35 | 41.27247 | -111.04189 | 7148 ft | 142 kts | 68° |
| 2026-05-05 19:36 | 41.27576 | -111.03174 | 7125 ft | 81 kts | 68° |
| 2026-05-05 19:36 | 41.27720 | -111.02724 | 7133 ft | 44 kts | 67° |
| 2026-05-05 19:36 | 41.27834 | -111.02371 | 7129 ft | 33 kts | 66° |
| 2026-05-05 19:36 | 41.27833 | -111.02232 | 7126 ft | 13 kts | 153° |
| 2026-05-05 19:37 | 41.27761 | -111.02239 | 7129 ft | 9 kts | 233° |
| 2026-05-05 19:37 | 41.27735 | -111.02309 | 7132 ft | 7 kts | 250° |
| 2026-05-05 19:37 | 41.27713 | -111.02378 | 7134 ft | 8 kts | 245° |
| 2026-05-05 19:37 | 41.27685 | -111.02464 | 7138 ft | 19 kts | 247° |
| 2026-05-05 19:38 | 41.27560 | -111.02847 | 7138 ft | 51 kts | 245° |
| 2026-05-05 19:38 | 41.27471 | -111.02988 | 7136 ft | 11 kts | 158° |
| 2026-05-05 19:38 | 41.27424 | -111.02972 | 7139 ft | 5 kts | 211° |
| 2026-05-05 19:38 | 41.27413 | -111.02998 | 7138 ft | 0 kts | 246° |